createdAt,value
2018-07-31T00:04:10.373Z,21.70
2018-07-31T00:09:07.691Z,21.70
2018-07-31T00:14:02.922Z,21.70
2018-07-31T00:18:57.668Z,21.30
2018-07-31T00:23:52.402Z,21.20
2018-07-31T00:28:47.570Z,21.20
2018-07-31T00:33:42.336Z,21.40
2018-07-31T00:38:36.981Z,21.20
2018-07-31T00:43:32.102Z,21.10
2018-07-31T00:48:26.781Z,20.90
2018-07-31T00:53:21.451Z,20.70
2018-07-31T00:58:16.234Z,20.90
2018-07-31T01:03:10.949Z,21.00
2018-07-31T01:08:05.753Z,20.80
2018-07-31T01:13:00.362Z,20.80
2018-07-31T01:17:54.973Z,20.80
2018-07-31T01:22:49.736Z,20.70
2018-07-31T01:27:44.467Z,20.50
2018-07-31T01:32:39.227Z,20.50
2018-07-31T01:37:33.984Z,20.50
2018-07-31T01:42:28.824Z,20.50
2018-07-31T01:47:23.438Z,20.40
2018-07-31T01:52:18.125Z,20.40
2018-07-31T01:57:13.202Z,20.10
2018-07-31T02:02:08.435Z,20.10
2018-07-31T02:07:03.339Z,20.00
2018-07-31T02:11:57.977Z,20.00
2018-07-31T02:16:52.662Z,20.00
2018-07-31T02:21:47.983Z,20.10
2018-07-31T02:31:36.859Z,20.00
2018-07-31T02:36:31.600Z,20.00
2018-07-31T02:41:26.794Z,19.80
2018-07-31T02:46:21.448Z,19.80
2018-07-31T02:51:16.422Z,19.90
2018-07-31T02:56:11.044Z,19.70
2018-07-31T03:01:05.836Z,19.70
2018-07-31T03:06:00.449Z,19.60
2018-07-31T03:10:55.066Z,19.60
2018-07-31T03:15:49.683Z,19.40
2018-07-31T03:20:44.312Z,19.40
2018-07-31T03:25:38.942Z,19.20
2018-07-31T03:30:33.527Z,19.20
2018-07-31T03:35:28.128Z,19.20
2018-07-31T03:40:22.786Z,19.10
2018-07-31T03:45:17.423Z,18.90
2018-07-31T03:50:12.139Z,19.00
2018-07-31T03:55:06.874Z,19.20
2018-07-31T04:00:01.708Z,19.30
2018-07-31T04:04:56.309Z,19.10
2018-07-31T04:09:51.752Z,19.00
2018-07-31T04:14:46.519Z,19.00
2018-07-31T04:24:35.781Z,19.20
2018-07-31T04:29:30.380Z,19.20
2018-07-31T04:34:25.315Z,19.10
2018-07-31T04:39:19.949Z,19.00
2018-07-31T04:44:15.043Z,19.10
2018-07-31T04:49:09.841Z,19.20
2018-07-31T04:54:04.488Z,19.40
2018-07-31T04:58:59.191Z,19.70
2018-07-31T05:03:53.863Z,20.20
2018-07-31T05:08:48.814Z,20.60
2018-07-31T05:13:43.466Z,21.00
2018-07-31T05:18:38.115Z,21.40
2018-07-31T05:23:32.729Z,21.70
2018-07-31T05:28:27.347Z,22.00
2018-07-31T05:33:21.958Z,22.10
2018-07-31T05:38:16.819Z,22.10
2018-07-31T05:43:11.514Z,22.50
2018-07-31T05:48:06.622Z,22.60
2018-07-31T05:53:01.241Z,22.80
2018-07-31T05:57:56.045Z,22.90
2018-07-31T06:02:50.713Z,22.90
2018-07-31T06:07:45.495Z,22.80
2018-07-31T06:12:40.256Z,22.00
2018-07-31T06:17:35.613Z,21.00
2018-07-31T06:22:30.250Z,20.50
2018-07-31T06:27:24.914Z,20.40
2018-07-31T06:32:19.563Z,20.50
2018-07-31T06:37:14.203Z,20.60
2018-07-31T06:42:09.727Z,20.70
2018-07-31T06:47:05.249Z,20.80
2018-07-31T06:51:59.923Z,21.10
2018-07-31T06:56:54.604Z,21.30
2018-07-31T07:01:50.065Z,21.70
2018-07-31T07:06:44.826Z,21.90
2018-07-31T07:11:39.602Z,22.20
2018-07-31T07:16:34.420Z,22.50
2018-07-31T07:21:29.099Z,22.80
2018-07-31T07:26:24.460Z,23.20
2018-07-31T07:31:19.165Z,23.60
2018-07-31T07:36:13.792Z,24.00
2018-07-31T07:41:08.870Z,24.40
2018-07-31T07:46:03.529Z,24.80
2018-07-31T07:50:58.410Z,25.20
2018-07-31T07:56:02.215Z,25.30
2018-07-31T08:00:56.867Z,25.60
2018-07-31T08:05:51.496Z,25.90
2018-07-31T08:10:46.254Z,26.20
2018-07-31T08:15:41.067Z,26.50
2018-07-31T08:20:35.808Z,26.90
2018-07-31T08:25:30.551Z,27.00
2018-07-31T08:30:25.312Z,27.20
2018-07-31T08:35:19.961Z,27.30
2018-07-31T08:40:14.615Z,27.60
2018-07-31T08:45:09.419Z,27.90
2018-07-31T08:50:04.143Z,27.80
2018-07-31T08:54:58.739Z,28.00
2018-07-31T08:59:53.532Z,28.10
2018-07-31T09:04:48.208Z,28.30
2018-07-31T09:09:42.945Z,28.80
2018-07-31T09:14:37.712Z,29.10
2018-07-31T09:19:32.371Z,29.50
2018-07-31T09:29:22.421Z,29.60
2018-07-31T09:34:17.049Z,29.90
2018-07-31T09:39:12.692Z,29.90
2018-07-31T09:44:08.483Z,30.10
2018-07-31T09:49:03.131Z,30.20
2018-07-31T09:53:57.751Z,30.40
2018-07-31T09:58:52.406Z,30.70
2018-07-31T10:03:47.359Z,30.80
2018-07-31T10:08:43.571Z,30.90
2018-07-31T10:13:38.296Z,31.00
2018-07-31T10:34:38.450Z,31.30
2018-07-31T10:39:33.928Z,32.00
2018-07-31T10:44:28.968Z,31.90
2018-07-31T10:49:24.251Z,32.10
2018-07-31T10:54:18.919Z,32.20
2018-07-31T10:59:13.765Z,32.50
2018-07-31T11:04:08.544Z,32.50
2018-07-31T11:09:03.299Z,32.60
2018-07-31T11:13:58.387Z,32.70
2018-07-31T11:18:53.672Z,33.00
2018-07-31T11:23:48.303Z,33.20
2018-07-31T11:28:42.941Z,33.40
2018-07-31T11:33:37.554Z,33.50
2018-07-31T11:38:32.331Z,33.60
2018-07-31T11:43:26.985Z,33.60
2018-07-31T11:48:21.615Z,33.80
2018-07-31T11:53:16.237Z,33.90
2018-07-31T12:03:05.503Z,34.20
2018-07-31T12:08:00.064Z,34.40
2018-07-31T12:17:49.548Z,34.30
2018-07-31T12:22:44.152Z,34.00
2018-07-31T12:27:39.063Z,33.90
2018-07-31T12:32:36.646Z,33.80
2018-07-31T12:37:31.254Z,33.80
2018-07-31T12:42:25.995Z,33.60
2018-07-31T12:47:20.615Z,33.50
2018-07-31T12:52:15.668Z,33.60
2018-07-31T12:57:10.382Z,33.50
2018-07-31T13:02:05.095Z,33.20
2018-07-31T13:06:59.896Z,33.00
2018-07-31T13:11:55.960Z,33.00
2018-07-31T13:16:50.666Z,32.90
2018-07-31T13:21:45.291Z,32.90
2018-07-31T13:26:39.899Z,32.90
2018-07-31T13:31:34.691Z,32.80
2018-07-31T13:36:29.543Z,32.70
2018-07-31T13:41:24.210Z,32.70
2018-07-31T13:46:18.929Z,32.70
2018-07-31T13:51:13.527Z,32.70
2018-07-31T13:56:08.267Z,32.60
2018-07-31T14:01:02.890Z,32.50
2018-07-31T14:05:58.124Z,32.60
2018-07-31T14:10:52.825Z,32.60
2018-07-31T14:15:47.515Z,32.50
2018-07-31T14:20:42.316Z,32.50
2018-07-31T14:25:37.013Z,32.50
2018-07-31T14:30:31.828Z,32.70
2018-07-31T14:35:26.570Z,32.70
2018-07-31T14:40:21.204Z,32.60
2018-07-31T14:45:15.882Z,32.60
2018-07-31T14:50:11.943Z,32.50
2018-07-31T14:55:07.183Z,32.50
2018-07-31T15:04:56.987Z,32.10
2018-07-31T15:09:51.591Z,32.40
2018-07-31T15:14:46.228Z,32.60
2018-07-31T15:19:41.115Z,32.70
2018-07-31T15:24:36.065Z,32.80
2018-07-31T15:29:30.736Z,32.70
2018-07-31T15:34:25.556Z,32.50
2018-07-31T15:39:20.662Z,32.40
2018-07-31T15:44:15.305Z,32.20
2018-07-31T15:49:09.959Z,32.10
2018-07-31T15:54:04.771Z,32.10
2018-07-31T15:59:00.321Z,32.10
2018-07-31T16:03:55.675Z,32.10
2018-07-31T16:08:50.256Z,32.20
2018-07-31T16:13:44.948Z,32.20
2018-07-31T16:23:46.992Z,32.10
2018-07-31T16:28:42.662Z,31.90
2018-07-31T16:33:37.541Z,31.90
2018-07-31T16:38:32.456Z,31.90
2018-07-31T16:43:27.112Z,31.90
2018-07-31T16:48:21.746Z,31.90
2018-07-31T16:53:16.423Z,31.90
2018-07-31T16:58:11.214Z,31.80
2018-07-31T17:03:05.851Z,31.80
2018-07-31T17:08:00.534Z,31.70
2018-07-31T17:17:49.624Z,31.60
2018-07-31T17:22:44.615Z,31.50
2018-07-31T17:27:39.769Z,31.40
2018-07-31T17:32:34.472Z,31.20
2018-07-31T17:37:29.633Z,31.20
2018-07-31T17:42:24.436Z,31.10
2018-07-31T17:47:19.231Z,30.90
2018-07-31T17:52:13.895Z,30.70
2018-07-31T17:57:08.747Z,30.40
2018-07-31T18:02:03.564Z,30.30
2018-07-31T18:11:52.920Z,29.80
2018-07-31T18:16:47.661Z,29.60
2018-07-31T18:21:42.566Z,29.30
2018-07-31T18:26:37.387Z,29.20
2018-07-31T18:31:31.997Z,29.00
2018-07-31T18:36:26.631Z,28.80
2018-07-31T18:41:21.432Z,28.60
2018-07-31T18:46:16.112Z,28.40
2018-07-31T18:51:10.753Z,28.30
2018-07-31T18:56:05.684Z,28.10
2018-07-31T19:01:00.511Z,28.10
2018-07-31T19:05:55.137Z,27.90
2018-07-31T19:10:49.964Z,27.80
2018-07-31T19:15:44.736Z,27.70
2018-07-31T19:25:34.122Z,27.30
2018-07-31T19:30:29.295Z,27.30
2018-07-31T19:35:25.419Z,27.30
2018-07-31T19:40:20.205Z,27.30
2018-07-31T19:45:14.843Z,27.20
2018-07-31T19:50:09.584Z,27.10
2018-07-31T19:55:04.549Z,27.00
2018-07-31T19:59:59.240Z,26.90
2018-07-31T20:04:54.004Z,27.00
2018-07-31T20:09:48.821Z,27.10
2018-07-31T20:14:43.416Z,27.00
2018-07-31T20:19:38.179Z,27.10
2018-07-31T20:24:32.936Z,27.20
2018-07-31T20:29:28.342Z,27.20
2018-07-31T20:34:22.995Z,27.20
2018-07-31T20:39:17.887Z,27.10
2018-07-31T20:44:12.612Z,27.00
2018-07-31T20:49:09.206Z,26.90
2018-07-31T20:54:03.923Z,26.80
2018-07-31T20:58:59.539Z,26.60
2018-07-31T21:03:54.352Z,26.50
2018-07-31T21:08:49.446Z,26.40
2018-07-31T21:13:44.138Z,26.30
2018-07-31T21:18:38.887Z,26.20
2018-07-31T21:23:33.505Z,26.10
2018-07-31T21:28:28.302Z,25.90
2018-07-31T21:33:23.198Z,25.90
2018-07-31T21:38:17.853Z,25.70
2018-07-31T21:43:12.651Z,25.60
2018-07-31T21:48:07.396Z,25.50
2018-07-31T21:53:02.983Z,25.50
2018-07-31T21:57:58.012Z,25.30
2018-07-31T22:02:52.793Z,25.20
2018-07-31T22:07:47.417Z,25.30
2018-07-31T22:12:42.050Z,25.10
2018-07-31T22:17:36.781Z,25.00
2018-07-31T22:22:32.105Z,24.80
2018-07-31T22:27:27.130Z,24.80
2018-07-31T22:32:21.804Z,24.70
2018-07-31T22:37:16.467Z,24.70
2018-07-31T22:42:11.083Z,24.60
2018-07-31T22:47:06.140Z,24.60
2018-07-31T22:52:00.849Z,24.60
2018-07-31T22:56:55.563Z,24.60
2018-07-31T23:01:50.240Z,24.40
2018-07-31T23:06:44.875Z,24.20
2018-07-31T23:11:39.608Z,24.10
2018-07-31T23:16:34.605Z,24.10
2018-07-31T23:21:29.317Z,24.20
2018-07-31T23:26:23.918Z,24.00
2018-07-31T23:31:18.621Z,23.90
2018-07-31T23:36:13.402Z,23.90
2018-07-31T23:41:08.248Z,23.90
2018-07-31T23:46:03.027Z,24.20
2018-07-31T23:50:57.641Z,24.30
2018-07-31T23:55:52.336Z,24.30
